sensor_id;sensor_type;location;lat;lon;timestamp;P1;durP1;ratioP1;P2;durP2;ratioP2
24799;SDS011;12897;50.812;4.430;2023-05-20T00:00:54;13.80;;;5.62;;
24799;SDS011;12897;50.812;4.430;2023-05-20T00:03:21;13.38;;;5.50;;
24799;SDS011;12897;50.812;4.430;2023-05-20T00:05:49;12.98;;;5.17;;
24799;SDS011;12897;50.812;4.430;2023-05-20T00:08:17;10.15;;;5.35;;
24799;SDS011;12897;50.812;4.430;2023-05-20T00:10:45;14.00;;;5.05;;
24799;SDS011;12897;50.812;4.430;2023-05-20T00:13:12;13.22;;;5.28;;
24799;SDS011;12897;50.812;4.430;2023-05-20T00:15:40;15.05;;;5.70;;
24799;SDS011;12897;50.812;4.430;2023-05-20T00:18:08;17.07;;;5.55;;
24799;SDS011;12897;50.812;4.430;2023-05-20T00:20:36;9.95;;;5.22;;
24799;SDS011;12897;50.812;4.430;2023-05-20T00:23:05;15.03;;;5.62;;
24799;SDS011;12897;50.812;4.430;2023-05-20T00:25:32;17.63;;;5.60;;
24799;SDS011;12897;50.812;4.430;2023-05-20T00:28:00;14.07;;;5.55;;
24799;SDS011;12897;50.812;4.430;2023-05-20T00:30:27;12.80;;;5.15;;
24799;SDS011;12897;50.812;4.430;2023-05-20T00:32:55;15.98;;;6.00;;
24799;SDS011;12897;50.812;4.430;2023-05-20T00:35:22;14.38;;;5.33;;
24799;SDS011;12897;50.812;4.430;2023-05-20T00:37:51;12.55;;;5.50;;
24799;SDS011;12897;50.812;4.430;2023-05-20T00:40:18;14.68;;;5.45;;
24799;SDS011;12897;50.812;4.430;2023-05-20T00:42:48;17.55;;;5.45;;
24799;SDS011;12897;50.812;4.430;2023-05-20T00:45:15;15.80;;;6.17;;
24799;SDS011;12897;50.812;4.430;2023-05-20T00:47:43;10.70;;;5.47;;
24799;SDS011;12897;50.812;4.430;2023-05-20T00:50:11;12.28;;;5.83;;
24799;SDS011;12897;50.812;4.430;2023-05-20T00:52:39;12.30;;;5.90;;
24799;SDS011;12897;50.812;4.430;2023-05-20T00:55:08;15.93;;;5.65;;
24799;SDS011;12897;50.812;4.430;2023-05-20T00:57:37;12.53;;;5.53;;
24799;SDS011;12897;50.812;4.430;2023-05-20T01:00:06;10.28;;;5.97;;
24799;SDS011;12897;50.812;4.430;2023-05-20T01:02:35;17.82;;;5.87;;
24799;SDS011;12897;50.812;4.430;2023-05-20T01:05:03;13.88;;;5.87;;
24799;SDS011;12897;50.812;4.430;2023-05-20T01:07:31;20.92;;;5.80;;
24799;SDS011;12897;50.812;4.430;2023-05-20T01:09:59;14.87;;;5.95;;
24799;SDS011;12897;50.812;4.430;2023-05-20T01:12:33;14.38;;;5.60;;
24799;SDS011;12897;50.812;4.430;2023-05-20T01:15:17;15.10;;;6.03;;
24799;SDS011;12897;50.812;4.430;2023-05-20T01:17:47;14.95;;;5.47;;
24799;SDS011;12897;50.812;4.430;2023-05-20T01:20:17;12.35;;;5.60;;
24799;SDS011;12897;50.812;4.430;2023-05-20T01:22:47;12.18;;;5.53;;
24799;SDS011;12897;50.812;4.430;2023-05-20T01:25:16;14.43;;;6.00;;
24799;SDS011;12897;50.812;4.430;2023-05-20T01:27:44;13.18;;;5.33;;
24799;SDS011;12897;50.812;4.430;2023-05-20T01:30:11;13.38;;;5.97;;
24799;SDS011;12897;50.812;4.430;2023-05-20T01:35:28;14.20;;;5.80;;
24799;SDS011;12897;50.812;4.430;2023-05-20T01:37:56;10.25;;;5.42;;
24799;SDS011;12897;50.812;4.430;2023-05-20T01:40:25;11.15;;;5.45;;
24799;SDS011;12897;50.812;4.430;2023-05-20T01:42:54;13.53;;;6.03;;
24799;SDS011;12897;50.812;4.430;2023-05-20T01:45:24;12.47;;;6.20;;
24799;SDS011;12897;50.812;4.430;2023-05-20T01:47:52;18.87;;;5.40;;
24799;SDS011;12897;50.812;4.430;2023-05-20T01:53:07;12.85;;;5.53;;
24799;SDS011;12897;50.812;4.430;2023-05-20T01:55:35;11.93;;;5.45;;
24799;SDS011;12897;50.812;4.430;2023-05-20T01:58:02;13.90;;;5.33;;
24799;SDS011;12897;50.812;4.430;2023-05-20T02:00:35;11.05;;;5.40;;
24799;SDS011;12897;50.812;4.430;2023-05-20T02:02:59;8.18;;;5.05;;
24799;SDS011;12897;50.812;4.430;2023-05-20T02:05:28;13.98;;;5.75;;
24799;SDS011;12897;50.812;4.430;2023-05-20T02:07:56;13.15;;;5.10;;
24799;SDS011;12897;50.812;4.430;2023-05-20T02:10:23;15.23;;;5.53;;
24799;SDS011;12897;50.812;4.430;2023-05-20T02:12:51;10.40;;;5.17;;
24799;SDS011;12897;50.812;4.430;2023-05-20T02:15:19;16.48;;;5.75;;
24799;SDS011;12897;50.812;4.430;2023-05-20T02:20:36;11.75;;;6.05;;
24799;SDS011;12897;50.812;4.430;2023-05-20T02:23:10;11.05;;;5.10;;
24799;SDS011;12897;50.812;4.430;2023-05-20T02:25:38;10.08;;;5.42;;
24799;SDS011;12897;50.812;4.430;2023-05-20T02:28:06;11.68;;;5.03;;
24799;SDS011;12897;50.812;4.430;2023-05-20T02:30:36;11.12;;;5.30;;
24799;SDS011;12897;50.812;4.430;2023-05-20T02:33:04;14.85;;;5.28;;
24799;SDS011;12897;50.812;4.430;2023-05-20T02:35:32;9.88;;;5.10;;
24799;SDS011;12897;50.812;4.430;2023-05-20T02:38:00;7.15;;;4.22;;
24799;SDS011;12897;50.812;4.430;2023-05-20T02:40:27;14.18;;;4.90;;
24799;SDS011;12897;50.812;4.430;2023-05-20T02:42:55;10.13;;;4.45;;
24799;SDS011;12897;50.812;4.430;2023-05-20T02:45:24;11.05;;;4.97;;
24799;SDS011;12897;50.812;4.430;2023-05-20T02:47:52;12.18;;;5.12;;
24799;SDS011;12897;50.812;4.430;2023-05-20T02:50:19;10.82;;;4.92;;
24799;SDS011;12897;50.812;4.430;2023-05-20T02:52:47;14.28;;;5.00;;
24799;SDS011;12897;50.812;4.430;2023-05-20T02:55:14;8.65;;;4.47;;
24799;SDS011;12897;50.812;4.430;2023-05-20T02:57:42;9.90;;;4.58;;
24799;SDS011;12897;50.812;4.430;2023-05-20T03:00:09;10.10;;;4.25;;
24799;SDS011;12897;50.812;4.430;2023-05-20T03:02:39;12.50;;;4.70;;
24799;SDS011;12897;50.812;4.430;2023-05-20T03:05:07;11.28;;;4.90;;
24799;SDS011;12897;50.812;4.430;2023-05-20T03:07:35;13.13;;;4.97;;
24799;SDS011;12897;50.812;4.430;2023-05-20T03:10:03;10.43;;;4.60;;
24799;SDS011;12897;50.812;4.430;2023-05-20T03:12:31;9.35;;;4.80;;
24799;SDS011;12897;50.812;4.430;2023-05-20T03:14:58;14.53;;;4.65;;
24799;SDS011;12897;50.812;4.430;2023-05-20T03:17:26;20.32;;;4.58;;
24799;SDS011;12897;50.812;4.430;2023-05-20T03:19:53;17.05;;;4.87;;
24799;SDS011;12897;50.812;4.430;2023-05-20T03:22:21;10.78;;;4.22;;
24799;SDS011;12897;50.812;4.430;2023-05-20T03:24:48;10.23;;;4.37;;
24799;SDS011;12897;50.812;4.430;2023-05-20T03:27:17;8.85;;;4.40;;
24799;SDS011;12897;50.812;4.430;2023-05-20T03:29:46;11.25;;;4.70;;
24799;SDS011;12897;50.812;4.430;2023-05-20T03:32:19;10.45;;;4.37;;
24799;SDS011;12897;50.812;4.430;2023-05-20T03:34:55;9.63;;;4.30;;
24799;SDS011;12897;50.812;4.430;2023-05-20T03:37:26;13.00;;;4.70;;
24799;SDS011;12897;50.812;4.430;2023-05-20T03:39:54;12.80;;;5.00;;
24799;SDS011;12897;50.812;4.430;2023-05-20T03:42:21;8.53;;;4.35;;
24799;SDS011;12897;50.812;4.430;2023-05-20T03:44:49;14.10;;;4.97;;
24799;SDS011;12897;50.812;4.430;2023-05-20T03:47:17;13.85;;;4.83;;
24799;SDS011;12897;50.812;4.430;2023-05-20T03:49:44;8.10;;;4.45;;
24799;SDS011;12897;50.812;4.430;2023-05-20T03:52:12;12.37;;;4.83;;
24799;SDS011;12897;50.812;4.430;2023-05-20T03:54:39;13.62;;;4.47;;
24799;SDS011;12897;50.812;4.430;2023-05-20T03:59:55;13.22;;;4.67;;
24799;SDS011;12897;50.812;4.430;2023-05-20T04:02:22;11.60;;;4.83;;
24799;SDS011;12897;50.812;4.430;2023-05-20T04:04:50;17.67;;;4.95;;
24799;SDS011;12897;50.812;4.430;2023-05-20T04:07:17;14.73;;;5.47;;
24799;SDS011;12897;50.812;4.430;2023-05-20T04:09:45;12.68;;;4.83;;
24799;SDS011;12897;50.812;4.430;2023-05-20T04:12:12;14.53;;;4.53;;
24799;SDS011;12897;50.812;4.430;2023-05-20T04:14:40;9.23;;;4.87;;
24799;SDS011;12897;50.812;4.430;2023-05-20T04:17:08;13.15;;;4.80;;
24799;SDS011;12897;50.812;4.430;2023-05-20T04:19:35;8.40;;;4.58;;
24799;SDS011;12897;50.812;4.430;2023-05-20T04:22:03;14.58;;;4.87;;
24799;SDS011;12897;50.812;4.430;2023-05-20T04:24:31;10.72;;;4.62;;
24799;SDS011;12897;50.812;4.430;2023-05-20T04:26:59;14.80;;;5.20;;
24799;SDS011;12897;50.812;4.430;2023-05-20T04:29:27;10.43;;;4.67;;
24799;SDS011;12897;50.812;4.430;2023-05-20T04:31:54;13.55;;;5.20;;
24799;SDS011;12897;50.812;4.430;2023-05-20T04:34:23;13.75;;;4.87;;
24799;SDS011;12897;50.812;4.430;2023-05-20T04:36:52;17.17;;;4.70;;
24799;SDS011;12897;50.812;4.430;2023-05-20T04:39:22;13.53;;;4.78;;
24799;SDS011;12897;50.812;4.430;2023-05-20T04:41:51;13.93;;;4.97;;
24799;SDS011;12897;50.812;4.430;2023-05-20T04:44:19;12.10;;;5.05;;
24799;SDS011;12897;50.812;4.430;2023-05-20T04:46:49;12.40;;;5.17;;
24799;SDS011;12897;50.812;4.430;2023-05-20T04:49:16;16.20;;;4.90;;
24799;SDS011;12897;50.812;4.430;2023-05-20T04:51:44;14.43;;;4.50;;
24799;SDS011;12897;50.812;4.430;2023-05-20T04:54:12;10.25;;;5.37;;
24799;SDS011;12897;50.812;4.430;2023-05-20T04:56:42;15.93;;;5.67;;
24799;SDS011;12897;50.812;4.430;2023-05-20T04:59:10;15.18;;;6.25;;
24799;SDS011;12897;50.812;4.430;2023-05-20T05:01:38;16.65;;;5.47;;
24799;SDS011;12897;50.812;4.430;2023-05-20T05:04:06;11.15;;;5.35;;
24799;SDS011;12897;50.812;4.430;2023-05-20T05:06:34;10.43;;;5.00;;
24799;SDS011;12897;50.812;4.430;2023-05-20T05:09:07;12.45;;;6.05;;
24799;SDS011;12897;50.812;4.430;2023-05-20T05:11:36;16.45;;;5.58;;
24799;SDS011;12897;50.812;4.430;2023-05-20T05:14:04;12.28;;;5.42;;
24799;SDS011;12897;50.812;4.430;2023-05-20T05:16:32;14.93;;;6.12;;
24799;SDS011;12897;50.812;4.430;2023-05-20T05:18:59;12.82;;;5.17;;
24799;SDS011;12897;50.812;4.430;2023-05-20T05:21:27;13.85;;;5.70;;
24799;SDS011;12897;50.812;4.430;2023-05-20T05:23:54;13.72;;;5.58;;
24799;SDS011;12897;50.812;4.430;2023-05-20T05:26:24;10.68;;;5.40;;
24799;SDS011;12897;50.812;4.430;2023-05-20T05:28:53;15.58;;;5.10;;
24799;SDS011;12897;50.812;4.430;2023-05-20T05:31:22;14.58;;;5.33;;
24799;SDS011;12897;50.812;4.430;2023-05-20T05:33:49;18.70;;;5.37;;
24799;SDS011;12897;50.812;4.430;2023-05-20T05:36:17;11.28;;;5.25;;
24799;SDS011;12897;50.812;4.430;2023-05-20T05:38:44;6.37;;;4.25;;
24799;SDS011;12897;50.812;4.430;2023-05-20T05:41:12;8.80;;;5.28;;
24799;SDS011;12897;50.812;4.430;2023-05-20T05:43:39;14.90;;;5.72;;
24799;SDS011;12897;50.812;4.430;2023-05-20T05:46:07;14.25;;;5.12;;
24799;SDS011;12897;50.812;4.430;2023-05-20T05:48:35;16.45;;;5.12;;
24799;SDS011;12897;50.812;4.430;2023-05-20T05:51:03;12.28;;;5.10;;
24799;SDS011;12897;50.812;4.430;2023-05-20T05:53:31;12.15;;;5.37;;
24799;SDS011;12897;50.812;4.430;2023-05-20T05:55:58;13.62;;;5.00;;
24799;SDS011;12897;50.812;4.430;2023-05-20T05:58:26;15.70;;;5.35;;
24799;SDS011;12897;50.812;4.430;2023-05-20T06:00:55;15.53;;;5.15;;
24799;SDS011;12897;50.812;4.430;2023-05-20T06:03:23;13.40;;;5.63;;
24799;SDS011;12897;50.812;4.430;2023-05-20T06:05:50;15.13;;;5.40;;
24799;SDS011;12897;50.812;4.430;2023-05-20T06:08:18;10.45;;;5.40;;
24799;SDS011;12897;50.812;4.430;2023-05-20T06:10:47;16.40;;;5.08;;
24799;SDS011;12897;50.812;4.430;2023-05-20T06:13:15;12.35;;;5.22;;
24799;SDS011;12897;50.812;4.430;2023-05-20T06:15:43;14.93;;;5.30;;
24799;SDS011;12897;50.812;4.430;2023-05-20T06:18:11;13.45;;;6.03;;
24799;SDS011;12897;50.812;4.430;2023-05-20T06:20:39;11.00;;;5.15;;
24799;SDS011;12897;50.812;4.430;2023-05-20T06:23:06;15.05;;;5.53;;
24799;SDS011;12897;50.812;4.430;2023-05-20T06:25:34;11.60;;;4.53;;
24799;SDS011;12897;50.812;4.430;2023-05-20T06:28:01;15.43;;;5.67;;
24799;SDS011;12897;50.812;4.430;2023-05-20T06:30:29;14.85;;;5.60;;
24799;SDS011;12897;50.812;4.430;2023-05-20T06:32:56;13.72;;;5.50;;
24799;SDS011;12897;50.812;4.430;2023-05-20T06:35:24;15.55;;;5.37;;
24799;SDS011;12897;50.812;4.430;2023-05-20T06:37:53;12.82;;;5.03;;
24799;SDS011;12897;50.812;4.430;2023-05-20T06:40:22;11.90;;;5.55;;
24799;SDS011;12897;50.812;4.430;2023-05-20T06:42:55;14.28;;;5.30;;
24799;SDS011;12897;50.812;4.430;2023-05-20T06:45:22;13.22;;;5.30;;
24799;SDS011;12897;50.812;4.430;2023-05-20T06:47:50;12.95;;;5.15;;
24799;SDS011;12897;50.812;4.430;2023-05-20T06:50:19;12.07;;;6.12;;
24799;SDS011;12897;50.812;4.430;2023-05-20T06:52:47;10.80;;;4.60;;
24799;SDS011;12897;50.812;4.430;2023-05-20T06:55:14;14.35;;;5.25;;
24799;SDS011;12897;50.812;4.430;2023-05-20T06:57:42;9.13;;;4.75;;
24799;SDS011;12897;50.812;4.430;2023-05-20T07:00:10;14.10;;;5.10;;
24799;SDS011;12897;50.812;4.430;2023-05-20T07:02:38;11.93;;;4.55;;
24799;SDS011;12897;50.812;4.430;2023-05-20T07:05:06;11.60;;;4.87;;
24799;SDS011;12897;50.812;4.430;2023-05-20T07:07:34;11.78;;;4.35;;
24799;SDS011;12897;50.812;4.430;2023-05-20T07:10:02;9.68;;;5.15;;
24799;SDS011;12897;50.812;4.430;2023-05-20T07:12:31;15.87;;;5.50;;
24799;SDS011;12897;50.812;4.430;2023-05-20T07:14:59;9.05;;;4.33;;
24799;SDS011;12897;50.812;4.430;2023-05-20T07:17:27;12.33;;;4.25;;
24799;SDS011;12897;50.812;4.430;2023-05-20T07:19:54;9.35;;;4.92;;
24799;SDS011;12897;50.812;4.430;2023-05-20T07:22:22;12.85;;;4.55;;
24799;SDS011;12897;50.812;4.430;2023-05-20T07:24:50;12.80;;;5.00;;
24799;SDS011;12897;50.812;4.430;2023-05-20T07:27:17;9.00;;;4.75;;
24799;SDS011;12897;50.812;4.430;2023-05-20T07:29:45;11.10;;;5.20;;
24799;SDS011;12897;50.812;4.430;2023-05-20T07:32:13;14.28;;;4.92;;
24799;SDS011;12897;50.812;4.430;2023-05-20T07:34:41;8.58;;;4.62;;
24799;SDS011;12897;50.812;4.430;2023-05-20T07:37:10;8.88;;;4.33;;
24799;SDS011;12897;50.812;4.430;2023-05-20T07:39:38;10.30;;;4.65;;
24799;SDS011;12897;50.812;4.430;2023-05-20T07:42:05;9.25;;;4.83;;
24799;SDS011;12897;50.812;4.430;2023-05-20T07:44:33;7.55;;;4.10;;
24799;SDS011;12897;50.812;4.430;2023-05-20T07:47:01;11.95;;;4.65;;
24799;SDS011;12897;50.812;4.430;2023-05-20T07:49:29;9.35;;;4.37;;
24799;SDS011;12897;50.812;4.430;2023-05-20T07:51:56;8.28;;;4.37;;
24799;SDS011;12897;50.812;4.430;2023-05-20T07:54:24;8.65;;;4.00;;
24799;SDS011;12897;50.812;4.430;2023-05-20T07:56:53;7.83;;;4.28;;
24799;SDS011;12897;50.812;4.430;2023-05-20T07:59:20;10.23;;;4.30;;
24799;SDS011;12897;50.812;4.430;2023-05-20T08:01:48;7.70;;;4.28;;
24799;SDS011;12897;50.812;4.430;2023-05-20T08:04:17;9.30;;;4.17;;
24799;SDS011;12897;50.812;4.430;2023-05-20T08:06:44;13.85;;;4.67;;
24799;SDS011;12897;50.812;4.430;2023-05-20T08:09:12;7.55;;;4.08;;
24799;SDS011;12897;50.812;4.430;2023-05-20T08:11:40;5.97;;;3.87;;
24799;SDS011;12897;50.812;4.430;2023-05-20T08:14:07;7.97;;;3.70;;
24799;SDS011;12897;50.812;4.430;2023-05-20T08:16:35;6.62;;;3.67;;
24799;SDS011;12897;50.812;4.430;2023-05-20T08:19:03;8.88;;;3.90;;
24799;SDS011;12897;50.812;4.430;2023-05-20T08:21:31;8.33;;;3.50;;
24799;SDS011;12897;50.812;4.430;2023-05-20T08:24:00;9.45;;;3.72;;
24799;SDS011;12897;50.812;4.430;2023-05-20T08:26:27;7.95;;;3.65;;
24799;SDS011;12897;50.812;4.430;2023-05-20T08:28:56;11.83;;;3.83;;
24799;SDS011;12897;50.812;4.430;2023-05-20T08:31:24;4.70;;;3.17;;
24799;SDS011;12897;50.812;4.430;2023-05-20T08:33:52;7.55;;;3.40;;
24799;SDS011;12897;50.812;4.430;2023-05-20T08:36:20;5.30;;;3.00;;
24799;SDS011;12897;50.812;4.430;2023-05-20T08:38:48;5.33;;;3.37;;
24799;SDS011;12897;50.812;4.430;2023-05-20T08:41:16;9.50;;;3.80;;
24799;SDS011;12897;50.812;4.430;2023-05-20T08:43:43;5.35;;;3.30;;
24799;SDS011;12897;50.812;4.430;2023-05-20T08:46:11;6.35;;;3.25;;
24799;SDS011;12897;50.812;4.430;2023-05-20T08:48:39;11.90;;;3.75;;
24799;SDS011;12897;50.812;4.430;2023-05-20T08:51:08;7.95;;;3.00;;
24799;SDS011;12897;50.812;4.430;2023-05-20T08:53:36;9.63;;;3.70;;
24799;SDS011;12897;50.812;4.430;2023-05-20T08:56:03;7.47;;;3.70;;
24799;SDS011;12897;50.812;4.430;2023-05-20T08:58:32;10.08;;;3.30;;
24799;SDS011;12897;50.812;4.430;2023-05-20T09:01:00;6.80;;;3.37;;
24799;SDS011;12897;50.812;4.430;2023-05-20T09:03:28;9.00;;;3.25;;
24799;SDS011;12897;50.812;4.430;2023-05-20T09:06:03;8.65;;;3.60;;
24799;SDS011;12897;50.812;4.430;2023-05-20T09:08:32;5.35;;;3.30;;
24799;SDS011;12897;50.812;4.430;2023-05-20T09:11:00;5.75;;;3.25;;
24799;SDS011;12897;50.812;4.430;2023-05-20T09:13:31;6.87;;;3.30;;
24799;SDS011;12897;50.812;4.430;2023-05-20T09:15:59;6.97;;;3.27;;
24799;SDS011;12897;50.812;4.430;2023-05-20T09:18:28;7.72;;;3.33;;
24799;SDS011;12897;50.812;4.430;2023-05-20T09:20:56;8.88;;;3.70;;
24799;SDS011;12897;50.812;4.430;2023-05-20T09:23:24;7.28;;;3.70;;
24799;SDS011;12897;50.812;4.430;2023-05-20T09:25:52;7.97;;;3.25;;
24799;SDS011;12897;50.812;4.430;2023-05-20T09:28:22;7.17;;;3.47;;
24799;SDS011;12897;50.812;4.430;2023-05-20T09:33:16;8.20;;;2.90;;
24799;SDS011;12897;50.812;4.430;2023-05-20T09:35:44;6.17;;;3.10;;
24799;SDS011;12897;50.812;4.430;2023-05-20T09:38:12;6.05;;;3.02;;
24799;SDS011;12897;50.812;4.430;2023-05-20T09:40:40;8.28;;;3.25;;
24799;SDS011;12897;50.812;4.430;2023-05-20T09:43:11;7.35;;;3.08;;
24799;SDS011;12897;50.812;4.430;2023-05-20T09:45:40;13.98;;;3.30;;
24799;SDS011;12897;50.812;4.430;2023-05-20T09:48:08;7.50;;;2.67;;
24799;SDS011;12897;50.812;4.430;2023-05-20T09:50:37;8.53;;;3.05;;
24799;SDS011;12897;50.812;4.430;2023-05-20T09:53:05;8.30;;;2.90;;
24799;SDS011;12897;50.812;4.430;2023-05-20T09:55:34;10.48;;;2.95;;
24799;SDS011;12897;50.812;4.430;2023-05-20T09:58:02;4.47;;;3.22;;
24799;SDS011;12897;50.812;4.430;2023-05-20T10:00:30;8.13;;;3.05;;
24799;SDS011;12897;50.812;4.430;2023-05-20T10:02:59;10.90;;;3.07;;
24799;SDS011;12897;50.812;4.430;2023-05-20T10:05:50;8.05;;;3.08;;
24799;SDS011;12897;50.812;4.430;2023-05-20T10:10:53;5.08;;;2.87;;
24799;SDS011;12897;50.812;4.430;2023-05-20T10:19:30;7.12;;;3.45;;
24799;SDS011;12897;50.812;4.430;2023-05-20T10:22:03;7.90;;;3.33;;
24799;SDS011;12897;50.812;4.430;2023-05-20T10:24:34;7.80;;;3.22;;
24799;SDS011;12897;50.812;4.430;2023-05-20T10:27:04;8.75;;;2.95;;
24799;SDS011;12897;50.812;4.430;2023-05-20T10:29:49;4.20;;;2.90;;
24799;SDS011;12897;50.812;4.430;2023-05-20T10:32:28;7.12;;;3.00;;
24799;SDS011;12897;50.812;4.430;2023-05-20T10:35:01;5.80;;;2.90;;
24799;SDS011;12897;50.812;4.430;2023-05-20T10:37:32;5.83;;;3.35;;
24799;SDS011;12897;50.812;4.430;2023-05-20T10:40:09;5.65;;;3.17;;
24799;SDS011;12897;50.812;4.430;2023-05-20T10:42:38;14.90;;;3.42;;
24799;SDS011;12897;50.812;4.430;2023-05-20T10:45:07;8.25;;;3.62;;
24799;SDS011;12897;50.812;4.430;2023-05-20T10:47:35;11.08;;;3.50;;
24799;SDS011;12897;50.812;4.430;2023-05-20T10:50:05;7.92;;;3.15;;
24799;SDS011;12897;50.812;4.430;2023-05-20T10:52:36;5.30;;;3.12;;
24799;SDS011;12897;50.812;4.430;2023-05-20T10:55:04;12.60;;;2.90;;
24799;SDS011;12897;50.812;4.430;2023-05-20T10:57:33;8.50;;;3.12;;
24799;SDS011;12897;50.812;4.430;2023-05-20T11:00:08;6.70;;;3.05;;
24799;SDS011;12897;50.812;4.430;2023-05-20T11:02:36;7.35;;;3.50;;
24799;SDS011;12897;50.812;4.430;2023-05-20T11:05:04;8.00;;;2.90;;
24799;SDS011;12897;50.812;4.430;2023-05-20T11:07:32;5.45;;;3.17;;
24799;SDS011;12897;50.812;4.430;2023-05-20T11:10:00;13.15;;;3.67;;
24799;SDS011;12897;50.812;4.430;2023-05-20T11:12:28;6.58;;;3.05;;
24799;SDS011;12897;50.812;4.430;2023-05-20T11:14:58;5.45;;;2.98;;
24799;SDS011;12897;50.812;4.430;2023-05-20T11:17:27;7.85;;;3.08;;
24799;SDS011;12897;50.812;4.430;2023-05-20T11:19:55;6.08;;;3.52;;
24799;SDS011;12897;50.812;4.430;2023-05-20T11:22:24;9.08;;;3.25;;
24799;SDS011;12897;50.812;4.430;2023-05-20T11:24:53;8.50;;;3.62;;
24799;SDS011;12897;50.812;4.430;2023-05-20T11:27:20;6.80;;;3.37;;
24799;SDS011;12897;50.812;4.430;2023-05-20T11:29:48;7.35;;;3.08;;
24799;SDS011;12897;50.812;4.430;2023-05-20T11:32:18;6.20;;;3.52;;
24799;SDS011;12897;50.812;4.430;2023-05-20T11:34:49;6.90;;;3.27;;
24799;SDS011;12897;50.812;4.430;2023-05-20T11:37:17;6.05;;;3.33;;
24799;SDS011;12897;50.812;4.430;2023-05-20T11:39:46;11.97;;;3.22;;
24799;SDS011;12897;50.812;4.430;2023-05-20T11:42:14;8.05;;;3.08;;
24799;SDS011;12897;50.812;4.430;2023-05-20T11:44:42;7.70;;;3.00;;
24799;SDS011;12897;50.812;4.430;2023-05-20T11:47:11;7.67;;;3.20;;
24799;SDS011;12897;50.812;4.430;2023-05-20T11:49:41;6.10;;;3.40;;
24799;SDS011;12897;50.812;4.430;2023-05-20T11:52:08;6.53;;;3.47;;
24799;SDS011;12897;50.812;4.430;2023-05-20T11:54:37;9.30;;;3.20;;
24799;SDS011;12897;50.812;4.430;2023-05-20T11:57:05;4.70;;;3.40;;
24799;SDS011;12897;50.812;4.430;2023-05-20T11:59:32;9.38;;;3.60;;
24799;SDS011;12897;50.812;4.430;2023-05-20T12:02:01;4.55;;;3.00;;
24799;SDS011;12897;50.812;4.430;2023-05-20T12:04:29;10.48;;;3.47;;
24799;SDS011;12897;50.812;4.430;2023-05-20T12:06:56;8.83;;;3.37;;
24799;SDS011;12897;50.812;4.430;2023-05-20T12:09:24;4.95;;;3.10;;
24799;SDS011;12897;50.812;4.430;2023-05-20T12:11:51;5.17;;;3.20;;
24799;SDS011;12897;50.812;4.430;2023-05-20T12:14:21;8.58;;;2.58;;
24799;SDS011;12897;50.812;4.430;2023-05-20T12:16:48;8.28;;;3.15;;
24799;SDS011;12897;50.812;4.430;2023-05-20T12:19:18;6.80;;;2.90;;
24799;SDS011;12897;50.812;4.430;2023-05-20T12:21:45;5.35;;;3.00;;
24799;SDS011;12897;50.812;4.430;2023-05-20T12:24:13;9.28;;;3.30;;
24799;SDS011;12897;50.812;4.430;2023-05-20T12:26:40;7.85;;;2.83;;
24799;SDS011;12897;50.812;4.430;2023-05-20T12:29:08;7.33;;;3.58;;
24799;SDS011;12897;50.812;4.430;2023-05-20T12:31:35;4.62;;;3.20;;
24799;SDS011;12897;50.812;4.430;2023-05-20T12:34:03;9.20;;;3.20;;
24799;SDS011;12897;50.812;4.430;2023-05-20T12:36:32;11.20;;;3.17;;
24799;SDS011;12897;50.812;4.430;2023-05-20T12:39:00;4.25;;;3.08;;
24799;SDS011;12897;50.812;4.430;2023-05-20T12:41:28;8.33;;;2.90;;
24799;SDS011;12897;50.812;4.430;2023-05-20T12:43:55;6.40;;;3.47;;
24799;SDS011;12897;50.812;4.430;2023-05-20T12:46:23;4.95;;;3.05;;
24799;SDS011;12897;50.812;4.430;2023-05-20T12:48:51;6.30;;;3.00;;
24799;SDS011;12897;50.812;4.430;2023-05-20T12:51:18;6.67;;;3.10;;
24799;SDS011;12897;50.812;4.430;2023-05-20T12:53:46;7.53;;;3.12;;
24799;SDS011;12897;50.812;4.430;2023-05-20T12:56:13;9.15;;;3.20;;
24799;SDS011;12897;50.812;4.430;2023-05-20T12:58:41;6.95;;;3.08;;
24799;SDS011;12897;50.812;4.430;2023-05-20T13:01:09;4.83;;;2.92;;
24799;SDS011;12897;50.812;4.430;2023-05-20T13:03:36;6.33;;;3.10;;
24799;SDS011;12897;50.812;4.430;2023-05-20T13:06:04;8.93;;;3.10;;
24799;SDS011;12897;50.812;4.430;2023-05-20T13:08:31;6.50;;;2.95;;
24799;SDS011;12897;50.812;4.430;2023-05-20T13:10:59;6.17;;;2.92;;
24799;SDS011;12897;50.812;4.430;2023-05-20T13:13:26;6.70;;;3.08;;
24799;SDS011;12897;50.812;4.430;2023-05-20T13:15:54;7.90;;;3.20;;
24799;SDS011;12897;50.812;4.430;2023-05-20T13:18:22;10.63;;;3.35;;
24799;SDS011;12897;50.812;4.430;2023-05-20T13:20:49;5.22;;;2.70;;
24799;SDS011;12897;50.812;4.430;2023-05-20T13:23:17;7.65;;;3.22;;
24799;SDS011;12897;50.812;4.430;2023-05-20T13:25:44;7.12;;;2.62;;
24799;SDS011;12897;50.812;4.430;2023-05-20T13:28:12;6.28;;;2.80;;
24799;SDS011;12897;50.812;4.430;2023-05-20T13:30:42;5.35;;;2.60;;
24799;SDS011;12897;50.812;4.430;2023-05-20T13:33:10;6.87;;;2.90;;
24799;SDS011;12897;50.812;4.430;2023-05-20T13:35:37;6.10;;;2.62;;
24799;SDS011;12897;50.812;4.430;2023-05-20T13:38:05;5.12;;;2.45;;
24799;SDS011;12897;50.812;4.430;2023-05-20T13:40:34;4.37;;;2.58;;
24799;SDS011;12897;50.812;4.430;2023-05-20T13:43:01;3.77;;;2.87;;
24799;SDS011;12897;50.812;4.430;2023-05-20T13:45:29;5.50;;;2.30;;
24799;SDS011;12897;50.812;4.430;2023-05-20T13:47:56;6.50;;;2.70;;
24799;SDS011;12897;50.812;4.430;2023-05-20T13:50:24;4.28;;;2.60;;
24799;SDS011;12897;50.812;4.430;2023-05-20T13:52:52;3.65;;;2.30;;
24799;SDS011;12897;50.812;4.430;2023-05-20T13:55:19;4.65;;;2.98;;
24799;SDS011;12897;50.812;4.430;2023-05-20T13:57:48;4.65;;;2.98;;
24799;SDS011;12897;50.812;4.430;2023-05-20T14:00:17;6.75;;;2.70;;
24799;SDS011;12897;50.812;4.430;2023-05-20T14:02:46;8.93;;;2.90;;
24799;SDS011;12897;50.812;4.430;2023-05-20T14:05:14;3.72;;;2.58;;
24799;SDS011;12897;50.812;4.430;2023-05-20T14:07:41;5.30;;;3.02;;
24799;SDS011;12897;50.812;4.430;2023-05-20T14:10:09;10.43;;;3.25;;
24799;SDS011;12897;50.812;4.430;2023-05-20T14:12:36;4.47;;;3.00;;
24799;SDS011;12897;50.812;4.430;2023-05-20T14:15:04;6.62;;;2.83;;
24799;SDS011;12897;50.812;4.430;2023-05-20T14:17:33;6.60;;;2.65;;
24799;SDS011;12897;50.812;4.430;2023-05-20T14:20:00;6.67;;;3.12;;
24799;SDS011;12897;50.812;4.430;2023-05-20T14:22:28;3.55;;;2.72;;
24799;SDS011;12897;50.812;4.430;2023-05-20T14:24:55;5.85;;;2.98;;
24799;SDS011;12897;50.812;4.430;2023-05-20T14:27:23;5.92;;;2.50;;
24799;SDS011;12897;50.812;4.430;2023-05-20T14:29:51;4.55;;;2.60;;
24799;SDS011;12897;50.812;4.430;2023-05-20T14:32:18;4.22;;;3.10;;
24799;SDS011;12897;50.812;4.430;2023-05-20T14:34:46;5.80;;;3.20;;
24799;SDS011;12897;50.812;4.430;2023-05-20T14:37:14;7.37;;;3.05;;
24799;SDS011;12897;50.812;4.430;2023-05-20T14:39:41;8.65;;;3.00;;
24799;SDS011;12897;50.812;4.430;2023-05-20T14:42:10;6.30;;;2.70;;
24799;SDS011;12897;50.812;4.430;2023-05-20T14:44:37;6.40;;;2.47;;
24799;SDS011;12897;50.812;4.430;2023-05-20T14:47:05;6.78;;;3.00;;
24799;SDS011;12897;50.812;4.430;2023-05-20T14:49:33;5.65;;;2.90;;
24799;SDS011;12897;50.812;4.430;2023-05-20T14:52:01;6.53;;;2.85;;
24799;SDS011;12897;50.812;4.430;2023-05-20T14:54:29;4.72;;;2.72;;
24799;SDS011;12897;50.812;4.430;2023-05-20T14:56:57;5.78;;;3.20;;
24799;SDS011;12897;50.812;4.430;2023-05-20T14:59:24;4.55;;;2.90;;
24799;SDS011;12897;50.812;4.430;2023-05-20T15:01:52;4.80;;;2.80;;
24799;SDS011;12897;50.812;4.430;2023-05-20T15:04:19;6.67;;;2.92;;
24799;SDS011;12897;50.812;4.430;2023-05-20T15:06:47;4.87;;;2.58;;
24799;SDS011;12897;50.812;4.430;2023-05-20T15:09:15;8.60;;;2.75;;